createdAt,value
2023-09-14T00:00:57.517Z,67.77
2023-09-14T00:01:57.528Z,68.49
2023-09-14T00:02:57.474Z,68.52
2023-09-14T00:03:57.581Z,68.44
2023-09-14T00:04:57.475Z,67.50
2023-09-14T00:05:57.451Z,69.67
2023-09-14T00:06:57.502Z,66.47
2023-09-14T00:07:57.429Z,69.08
2023-09-14T00:08:57.396Z,69.03
2023-09-14T00:09:57.413Z,68.93
2023-09-14T00:10:57.376Z,69.06
2023-09-14T00:11:57.382Z,69.97
2023-09-14T00:12:57.366Z,70.10
2023-09-14T00:13:57.362Z,68.57
2023-09-14T00:14:57.340Z,69.38
2023-09-14T00:15:57.458Z,68.36
2023-09-14T00:16:57.389Z,69.21
2023-09-14T00:17:57.316Z,68.90
2023-09-14T00:18:57.357Z,67.94
2023-09-14T00:19:57.282Z,69.82
2023-09-14T00:20:57.336Z,67.77
2023-09-14T00:21:57.284Z,69.41
2023-09-14T00:22:57.270Z,68.55
2023-09-14T00:23:57.263Z,66.96
2023-09-14T00:24:57.260Z,71.51
2023-09-14T00:25:57.249Z,66.98
2023-09-14T00:26:57.213Z,69.25
2023-09-14T00:27:57.249Z,68.63
2023-09-14T00:28:57.195Z,66.72
2023-09-14T00:29:57.192Z,70.49
2023-09-14T00:30:57.249Z,68.08
2023-09-14T00:31:57.180Z,69.25
2023-09-14T00:32:57.192Z,67.68
2023-09-14T00:33:57.185Z,69.24
2023-09-14T00:34:57.160Z,69.63
2023-09-14T00:35:57.126Z,70.84
2023-09-14T00:36:57.131Z,69.87
2023-09-14T00:37:57.095Z,69.22
2023-09-14T00:38:57.088Z,68.15
2023-09-14T00:39:57.133Z,68.78
2023-09-14T00:40:57.066Z,67.31
2023-09-14T00:41:57.052Z,69.66
2023-09-14T00:42:57.075Z,68.32
2023-09-14T00:43:57.044Z,68.49
2023-09-14T00:44:57.036Z,68.92
2023-09-14T00:45:57.166Z,70.01
2023-09-14T00:46:57.129Z,70.38
2023-09-14T00:47:57.058Z,69.35
2023-09-14T00:48:57.037Z,69.11
2023-09-14T00:49:56.970Z,67.45
2023-09-14T00:50:56.976Z,67.64
2023-09-14T00:51:57.003Z,69.31
2023-09-14T00:52:56.963Z,67.77
2023-09-14T00:53:56.944Z,69.45
2023-09-14T00:54:56.969Z,68.98
2023-09-14T00:55:56.936Z,68.35
2023-09-14T00:56:56.905Z,68.12
2023-09-14T00:57:56.980Z,66.61
2023-09-14T00:58:56.904Z,68.94
2023-09-14T00:59:56.873Z,66.42
2023-09-14T01:00:56.917Z,70.94
2023-09-14T01:01:56.902Z,71.12
2023-09-14T01:02:57.147Z,73.45
2023-09-14T01:03:56.911Z,69.43
2023-09-14T01:04:56.877Z,69.68
2023-09-14T01:05:56.811Z,70.42
2023-09-14T01:06:56.809Z,71.81
2023-09-14T01:07:56.810Z,70.14
2023-09-14T01:08:56.798Z,70.66
2023-09-14T01:09:56.805Z,69.77
2023-09-14T01:10:56.758Z,68.62
2023-09-14T01:11:56.776Z,71.20
2023-09-14T01:12:56.801Z,73.99
2023-09-14T01:13:56.727Z,70.47
2023-09-14T01:14:56.720Z,70.32
2023-09-14T01:15:56.763Z,69.10
2023-09-14T01:16:56.767Z,69.37
2023-09-14T01:17:56.731Z,67.95
2023-09-14T01:18:56.714Z,66.49
2023-09-14T01:19:56.669Z,68.07
2023-09-14T01:20:56.668Z,68.26
2023-09-14T01:21:56.682Z,67.49
2023-09-14T01:22:56.633Z,67.27
2023-09-14T01:23:56.628Z,68.91
2023-09-14T01:24:56.671Z,69.48
2023-09-14T01:25:56.617Z,70.48
2023-09-14T01:26:56.604Z,68.23
2023-09-14T01:27:56.610Z,70.29
2023-09-14T01:28:56.587Z,68.57
2023-09-14T01:29:56.568Z,69.08
2023-09-14T01:30:56.612Z,68.98
2023-09-14T01:31:56.561Z,67.50
2023-09-14T01:32:56.545Z,70.58
2023-09-14T01:33:56.553Z,68.54
2023-09-14T01:34:56.524Z,69.21
2023-09-14T01:35:56.519Z,69.96
2023-09-14T01:36:56.496Z,70.48
2023-09-14T01:37:56.481Z,70.17
2023-09-14T01:38:56.472Z,70.17
2023-09-14T01:39:56.514Z,70.39
2023-09-14T01:40:56.469Z,69.62
2023-09-14T01:41:56.528Z,69.84
2023-09-14T01:42:56.465Z,68.37
2023-09-14T01:43:56.422Z,72.13
2023-09-14T01:44:56.452Z,72.49
2023-09-14T01:45:56.492Z,69.91
2023-09-14T01:46:56.456Z,71.74
2023-09-14T01:47:56.391Z,68.87
2023-09-14T01:48:56.411Z,69.99
2023-09-14T01:49:56.374Z,71.74
2023-09-14T01:50:56.357Z,70.34
2023-09-14T01:51:56.365Z,70.64
2023-09-14T01:52:56.332Z,70.32
2023-09-14T01:53:56.334Z,69.27
2023-09-14T01:54:56.350Z,70.96
2023-09-14T01:55:56.297Z,70.60
2023-09-14T01:56:56.287Z,69.99
2023-09-14T01:57:56.310Z,70.58
2023-09-14T01:58:56.281Z,72.09
2023-09-14T01:59:56.263Z,70.09
2023-09-14T02:00:56.267Z,71.05
2023-09-14T02:01:56.320Z,70.89
2023-09-14T02:02:56.246Z,71.45
2023-09-14T02:03:56.261Z,70.07
2023-09-14T02:04:56.210Z,71.97
2023-09-14T02:05:56.197Z,72.35
2023-09-14T02:06:56.193Z,69.71
2023-09-14T02:07:56.195Z,68.63
2023-09-14T02:08:56.172Z,70.85
2023-09-14T02:09:56.199Z,71.29
2023-09-14T02:10:57.720Z,71.38
2023-09-14T02:11:56.134Z,70.26
2023-09-14T02:12:56.164Z,71.00
2023-09-14T02:13:56.123Z,71.08
2023-09-14T02:14:56.106Z,70.84
2023-09-14T02:15:56.166Z,72.58
2023-09-14T02:16:56.121Z,71.70
2023-09-14T02:17:56.105Z,70.14
2023-09-14T02:18:56.087Z,72.67
2023-09-14T02:19:56.054Z,73.15
2023-09-14T02:20:56.050Z,72.66
2023-09-14T02:21:56.064Z,72.58
2023-09-14T02:22:56.045Z,71.65
2023-09-14T02:23:56.018Z,71.97
2023-09-14T02:24:56.043Z,71.89
2023-09-14T02:25:55.993Z,72.46
2023-09-14T02:26:55.990Z,72.16
2023-09-14T02:27:55.985Z,71.70
2023-09-14T02:28:55.968Z,71.77
2023-09-14T02:29:55.955Z,71.31
2023-09-14T02:30:55.956Z,72.36
2023-09-14T02:31:56.016Z,71.72
2023-09-14T02:32:55.941Z,70.92
2023-09-14T02:33:56.066Z,71.30
2023-09-14T02:34:55.925Z,70.38
2023-09-14T02:35:55.904Z,70.45
2023-09-14T02:36:55.912Z,69.77
2023-09-14T02:37:55.864Z,71.15
2023-09-14T02:38:55.862Z,69.87
2023-09-14T02:39:55.874Z,69.21
2023-09-14T02:40:55.860Z,71.70
2023-09-14T02:41:55.829Z,70.60
2023-09-14T02:42:55.848Z,71.01
2023-09-14T02:43:55.816Z,72.97
2023-09-14T02:44:55.802Z,71.01
2023-09-14T02:45:56.974Z,70.65
2023-09-14T02:46:55.811Z,68.96
2023-09-14T02:47:55.824Z,71.87
2023-09-14T02:48:55.801Z,71.04
2023-09-14T02:49:55.778Z,69.47
2023-09-14T02:50:55.758Z,72.12
2023-09-14T02:51:55.782Z,73.67
2023-09-14T02:52:55.723Z,72.79
2023-09-14T02:53:55.714Z,73.04
2023-09-14T02:54:55.757Z,72.45
2023-09-14T02:55:55.708Z,68.62
2023-09-14T02:56:55.690Z,72.93
2023-09-14T02:57:55.726Z,72.75
2023-09-14T02:58:55.728Z,73.14
2023-09-14T02:59:55.735Z,71.84
2023-09-14T03:00:55.658Z,73.15
2023-09-14T03:01:55.731Z,72.21
2023-09-14T03:02:55.669Z,72.41
2023-09-14T03:03:55.724Z,71.55
2023-09-14T03:04:55.620Z,73.25
2023-09-14T03:05:55.649Z,72.56
2023-09-14T03:06:55.626Z,71.94
2023-09-14T03:07:55.585Z,72.19
2023-09-14T03:08:55.588Z,72.66
2023-09-14T03:09:55.589Z,72.44
2023-09-14T03:10:55.548Z,71.12
2023-09-14T03:11:55.541Z,70.71
2023-09-14T03:12:55.564Z,71.30
2023-09-14T03:13:55.548Z,72.60
2023-09-14T03:14:55.512Z,68.83
2023-09-14T03:15:55.577Z,71.66
2023-09-14T03:16:55.550Z,71.23
2023-09-14T03:17:55.520Z,71.11
2023-09-14T03:18:55.490Z,73.40
2023-09-14T03:19:55.450Z,71.78
2023-09-14T03:20:55.453Z,72.63
2023-09-14T03:21:55.469Z,73.33
2023-09-14T03:22:55.443Z,73.46
2023-09-14T03:23:55.419Z,72.58
2023-09-14T03:24:55.489Z,72.25
2023-09-14T03:25:55.397Z,73.46
2023-09-14T03:26:55.400Z,73.50
2023-09-14T03:27:55.406Z,73.03
2023-09-14T03:28:55.367Z,73.24
2023-09-14T03:29:55.354Z,73.35
2023-09-14T03:30:55.409Z,72.12
2023-09-14T03:31:55.356Z,72.74
2023-09-14T03:32:55.389Z,72.37
2023-09-14T03:33:55.342Z,73.76
2023-09-14T03:34:55.312Z,73.41
2023-09-14T03:35:55.294Z,71.66
2023-09-14T03:36:55.313Z,72.75
2023-09-14T03:37:55.272Z,72.56
2023-09-14T03:38:55.253Z,71.95
2023-09-14T03:39:55.278Z,72.46
2023-09-14T03:40:55.249Z,73.39
2023-09-14T03:41:56.240Z,73.96
2023-09-14T03:42:55.242Z,73.76
2023-09-14T03:43:55.218Z,72.67
2023-09-14T03:44:55.223Z,71.91
2023-09-14T03:45:55.330Z,74.43
2023-09-14T03:46:55.181Z,72.62
2023-09-14T03:47:55.203Z,72.89
2023-09-14T03:48:55.178Z,73.63
2023-09-14T03:49:55.146Z,72.70
2023-09-14T03:50:55.150Z,71.20
2023-09-14T03:51:55.170Z,73.07
2023-09-14T03:52:55.122Z,72.56
2023-09-14T03:53:55.114Z,71.06
2023-09-14T03:54:55.164Z,71.12
2023-09-14T03:55:55.112Z,74.14
2023-09-14T03:56:55.085Z,73.79
2023-09-14T03:57:55.076Z,73.23
2023-09-14T03:58:55.061Z,73.18
2023-09-14T03:59:55.065Z,74.07
2023-09-14T04:00:55.070Z,74.06
2023-09-14T04:01:55.075Z,72.64
2023-09-14T04:02:55.059Z,71.97
2023-09-14T04:03:56.132Z,70.62
2023-09-14T04:04:56.015Z,70.50
2023-09-14T04:05:55.043Z,72.29
2023-09-14T04:06:55.061Z,72.88
2023-09-14T04:07:54.969Z,73.51
2023-09-14T04:08:54.980Z,73.43
2023-09-14T04:09:54.990Z,72.59
2023-09-14T04:10:54.946Z,71.94
2023-09-14T04:11:54.934Z,72.68
2023-09-14T04:12:54.937Z,73.65
2023-09-14T04:13:54.932Z,73.17
2023-09-14T04:14:54.912Z,72.66
2023-09-14T04:15:54.934Z,71.78
2023-09-14T04:16:54.936Z,73.49
2023-09-14T04:17:54.880Z,74.12
2023-09-14T04:18:54.911Z,74.69
2023-09-14T04:19:54.859Z,74.48
2023-09-14T04:20:54.850Z,72.36
2023-09-14T04:21:55.724Z,73.39
2023-09-14T04:22:54.841Z,71.71
2023-09-14T04:23:54.837Z,73.15
2023-09-14T04:24:54.816Z,73.15
2023-09-14T04:25:54.811Z,72.58
2023-09-14T04:26:54.785Z,73.42
2023-09-14T04:27:54.972Z,72.87
2023-09-14T04:28:54.781Z,73.25
2023-09-14T04:29:54.754Z,73.54
2023-09-14T04:30:55.849Z,70.11
2023-09-14T04:31:54.748Z,74.31
2023-09-14T04:32:54.792Z,74.42
2023-09-14T04:33:54.739Z,73.15
2023-09-14T04:34:54.710Z,73.75
2023-09-14T04:35:54.695Z,74.11
2023-09-14T04:36:54.775Z,73.76
2023-09-14T04:37:54.688Z,72.41
2023-09-14T04:38:54.680Z,73.67
2023-09-14T04:39:54.687Z,75.58
2023-09-14T04:40:54.648Z,73.77
2023-09-14T04:41:54.653Z,73.74
2023-09-14T04:42:54.667Z,73.51
2023-09-14T04:43:54.619Z,73.48
2023-09-14T04:44:54.631Z,73.59
2023-09-14T04:45:54.650Z,72.70
2023-09-14T04:46:54.631Z,73.27
2023-09-14T04:47:54.635Z,72.97
2023-09-14T04:48:54.620Z,73.49
2023-09-14T04:49:54.558Z,74.00
2023-09-14T04:50:54.562Z,73.26
2023-09-14T04:51:54.614Z,73.43
2023-09-14T04:52:54.534Z,73.62
2023-09-14T04:53:54.542Z,74.44
2023-09-14T04:54:54.530Z,73.46
2023-09-14T04:55:55.569Z,73.90
2023-09-14T04:56:54.487Z,73.12
2023-09-14T04:57:54.684Z,73.78
2023-09-14T04:58:55.469Z,73.93
2023-09-14T04:59:54.481Z,75.05
2023-09-14T05:00:54.750Z,73.86
2023-09-14T05:01:54.507Z,72.74
2023-09-14T05:02:54.462Z,73.71
2023-09-14T05:03:54.487Z,73.16
2023-09-14T05:04:54.438Z,74.21
2023-09-14T05:05:54.452Z,73.11
2023-09-14T05:06:54.457Z,73.36
2023-09-14T05:07:54.384Z,73.29
2023-09-14T05:08:54.375Z,75.11
2023-09-14T05:09:54.425Z,73.49
2023-09-14T05:10:54.347Z,72.24
2023-09-14T05:11:54.337Z,72.03
2023-09-14T05:12:54.382Z,70.64
2023-09-14T05:13:54.330Z,71.43
2023-09-14T05:14:54.323Z,71.69
2023-09-14T05:15:54.334Z,71.05
2023-09-14T05:16:54.320Z,72.29
2023-09-14T05:17:54.331Z,72.71
2023-09-14T05:18:54.309Z,72.63
2023-09-14T05:19:54.261Z,72.65
2023-09-14T05:20:54.255Z,71.74
2023-09-14T05:21:54.286Z,72.90
2023-09-14T05:22:54.232Z,72.39
2023-09-14T05:23:54.232Z,72.27
2023-09-14T05:24:54.282Z,73.56
2023-09-14T05:25:54.191Z,73.45
2023-09-14T05:26:55.189Z,73.39
2023-09-14T05:27:54.200Z,73.39
2023-09-14T05:28:54.185Z,73.06
2023-09-14T05:29:54.165Z,73.42
2023-09-14T05:30:54.193Z,73.35
2023-09-14T05:31:54.151Z,73.38
2023-09-14T05:32:54.193Z,73.62
2023-09-14T05:33:54.201Z,72.84
2023-09-14T05:34:54.117Z,72.48
2023-09-14T05:35:54.106Z,73.56
2023-09-14T05:36:54.158Z,72.22
2023-09-14T05:37:54.112Z,72.90
2023-09-14T05:38:54.083Z,72.55
2023-09-14T05:39:54.122Z,71.51
2023-09-14T05:40:54.062Z,71.05
2023-09-14T05:41:54.059Z,71.35
2023-09-14T05:42:54.114Z,71.36
2023-09-14T05:43:54.024Z,71.40
2023-09-14T05:44:54.014Z,72.13
2023-09-14T05:45:54.099Z,72.38
2023-09-14T05:46:54.032Z,72.89
2023-09-14T05:47:54.069Z,72.03
2023-09-14T05:48:54.017Z,71.16
2023-09-14T05:49:53.970Z,71.16
2023-09-14T05:50:53.966Z,71.37
2023-09-14T05:51:54.014Z,71.14
2023-09-14T05:52:53.933Z,70.66
2023-09-14T05:53:53.928Z,71.10
2023-09-14T05:54:53.932Z,69.99
2023-09-14T05:55:53.929Z,69.54
2023-09-14T05:56:53.921Z,70.53
2023-09-14T05:57:53.922Z,71.24
2023-09-14T05:58:53.882Z,70.72
2023-09-14T05:59:53.876Z,70.99
2023-09-14T06:00:53.887Z,70.81
2023-09-14T06:01:53.948Z,71.10
2023-09-14T06:02:53.917Z,70.84
2023-09-14T06:03:53.853Z,71.32
2023-09-14T06:05:02.444Z,71.18
2023-09-14T06:05:56.843Z,71.35
2023-09-14T06:06:53.851Z,71.25
2023-09-14T06:07:53.832Z,71.44
2023-09-14T06:08:53.785Z,72.43
2023-09-14T06:09:53.833Z,72.05
2023-09-14T06:10:53.779Z,72.38
2023-09-14T06:11:54.753Z,72.64
2023-09-14T06:12:53.803Z,71.69
2023-09-14T06:13:53.728Z,71.72
2023-09-14T06:14:53.748Z,71.44
2023-09-14T06:15:53.772Z,71.85
2023-09-14T06:16:53.788Z,71.22
2023-09-14T06:17:53.712Z,71.30
2023-09-14T06:18:53.713Z,71.55
2023-09-14T06:19:53.692Z,72.49
2023-09-14T06:20:53.674Z,72.63
2023-09-14T06:21:53.678Z,71.78
2023-09-14T06:22:53.652Z,73.69
2023-09-14T06:23:53.712Z,73.22
2023-09-14T06:24:53.666Z,72.64
2023-09-14T06:25:53.624Z,73.58
2023-09-14T06:26:53.614Z,72.61
2023-09-14T06:27:53.646Z,73.41
2023-09-14T06:28:53.742Z,72.81
2023-09-14T06:29:53.595Z,71.76
2023-09-14T06:30:53.627Z,73.23
2023-09-14T06:31:53.591Z,72.93
2023-09-14T06:32:53.613Z,73.34
2023-09-14T06:33:53.736Z,73.18
2023-09-14T06:34:54.537Z,72.67
2023-09-14T06:35:53.527Z,73.03
2023-09-14T06:36:53.564Z,72.14
2023-09-14T06:37:53.524Z,72.31
2023-09-14T06:38:53.509Z,71.79
2023-09-14T06:39:53.511Z,72.81
2023-09-14T06:40:53.489Z,71.09
2023-09-14T06:41:53.464Z,72.21
2023-09-14T06:42:53.507Z,71.78
2023-09-14T06:43:53.447Z,70.98
2023-09-14T06:44:53.482Z,70.86
2023-09-14T06:45:53.487Z,71.63
2023-09-14T06:46:53.471Z,71.65
2023-09-14T06:47:53.468Z,71.93
2023-09-14T06:48:53.417Z,71.43
2023-09-14T06:49:53.393Z,71.92
2023-09-14T06:50:53.393Z,71.97
2023-09-14T06:51:53.386Z,71.68
2023-09-14T06:52:53.346Z,71.72
2023-09-14T06:53:53.360Z,71.85
2023-09-14T06:54:53.382Z,72.28
2023-09-14T06:55:53.329Z,72.33
2023-09-14T06:56:53.318Z,72.65
2023-09-14T06:57:53.405Z,72.04
2023-09-14T06:58:53.400Z,73.33
2023-09-14T06:59:53.287Z,71.95
2023-09-14T07:00:53.357Z,72.96
2023-09-14T07:01:53.342Z,72.72
2023-09-14T07:02:53.482Z,72.09
2023-09-14T07:03:53.535Z,71.28
2023-09-14T07:04:53.299Z,71.93
2023-09-14T07:05:53.231Z,71.46
2023-09-14T07:06:53.237Z,70.70
2023-09-14T07:07:53.237Z,71.68
2023-09-14T07:08:53.402Z,70.52
2023-09-14T07:09:53.261Z,70.88
2023-09-14T07:10:53.172Z,71.63
2023-09-14T07:11:53.197Z,72.35
2023-09-14T07:12:53.237Z,71.96
2023-09-14T07:13:53.138Z,73.07
2023-09-14T07:14:53.132Z,72.97
2023-09-14T07:15:53.283Z,72.09
2023-09-14T07:16:53.164Z,72.64
2023-09-14T07:17:53.130Z,72.19
2023-09-14T07:18:53.104Z,71.19
2023-09-14T07:19:53.078Z,72.46
2023-09-14T07:20:53.075Z,73.27
2023-09-14T07:21:53.148Z,72.70
2023-09-14T07:22:53.085Z,72.61
2023-09-14T07:23:53.037Z,72.83
2023-09-14T07:24:53.041Z,73.01
2023-09-14T07:25:53.038Z,71.25
2023-09-14T07:26:53.025Z,70.44
2023-09-14T07:27:53.060Z,71.09
2023-09-14T07:28:53.046Z,69.18
2023-09-14T07:29:52.971Z,70.91
2023-09-14T07:30:52.990Z,71.09
2023-09-14T07:31:53.006Z,70.44
2023-09-14T07:32:52.955Z,70.04
2023-09-14T07:33:52.961Z,69.19
2023-09-14T07:34:52.935Z,68.61
2023-09-14T07:35:53.023Z,69.91
2023-09-14T07:36:52.924Z,68.90
2023-09-14T07:37:52.897Z,69.17
2023-09-14T07:38:52.915Z,68.48
2023-09-14T07:39:52.916Z,69.72
2023-09-14T07:40:52.877Z,68.22
2023-09-14T07:41:52.845Z,69.11
2023-09-14T07:42:52.870Z,67.23
2023-09-14T07:43:52.838Z,67.51
2023-09-14T07:44:52.822Z,68.31
2023-09-14T07:45:53.318Z,67.46
2023-09-14T07:46:52.878Z,68.35
2023-09-14T07:47:52.829Z,67.48
2023-09-14T07:48:52.914Z,67.97
2023-09-14T07:49:52.787Z,67.70
2023-09-14T07:50:52.774Z,67.68
2023-09-14T07:51:52.773Z,68.18
2023-09-14T07:52:52.737Z,68.33
2023-09-14T07:53:52.743Z,67.66
2023-09-14T07:54:52.786Z,68.95
2023-09-14T07:55:52.707Z,68.22
2023-09-14T07:56:52.695Z,67.76
2023-09-14T07:57:52.710Z,67.54
2023-09-14T07:58:53.216Z,67.35
2023-09-14T07:59:52.681Z,67.44
2023-09-14T08:00:52.668Z,67.63
2023-09-14T08:01:52.644Z,67.18
2023-09-14T08:02:52.670Z,67.89
2023-09-14T08:03:53.014Z,67.44
2023-09-14T08:04:52.830Z,67.60
2023-09-14T08:05:52.650Z,68.12
2023-09-14T08:06:52.619Z,68.03
2023-09-14T08:07:52.601Z,67.66
2023-09-14T08:08:52.638Z,67.69
2023-09-14T08:09:52.622Z,68.16
2023-09-14T08:10:52.569Z,67.56
2023-09-14T08:11:52.546Z,67.48
2023-09-14T08:12:52.601Z,67.52
2023-09-14T08:13:52.602Z,66.96
2023-09-14T08:14:52.532Z,66.95
2023-09-14T08:15:52.577Z,67.55
2023-09-14T08:16:52.581Z,66.97
2023-09-14T08:17:52.523Z,68.25
2023-09-14T08:18:52.516Z,66.99
2023-09-14T08:19:52.468Z,66.13
2023-09-14T08:20:52.453Z,66.55
2023-09-14T08:21:52.480Z,67.09
2023-09-14T08:22:52.557Z,66.13
2023-09-14T08:23:52.449Z,66.35
2023-09-14T08:24:52.479Z,67.20
2023-09-14T08:25:52.415Z,66.10
2023-09-14T08:26:52.393Z,66.31
2023-09-14T08:27:52.446Z,66.90
2023-09-14T08:28:52.371Z,66.27
2023-09-14T08:29:52.355Z,65.90
2023-09-14T08:30:52.397Z,64.79
2023-09-14T08:31:52.437Z,66.49
2023-09-14T08:32:52.452Z,66.37
2023-09-14T08:33:52.341Z,66.35
2023-09-14T08:34:52.340Z,67.18
2023-09-14T08:35:52.302Z,68.21
2023-09-14T08:36:52.326Z,68.69
2023-09-14T08:37:52.301Z,67.14
2023-09-14T08:39:00.511Z,66.87
2023-09-14T08:39:54.326Z,66.59
2023-09-14T08:40:52.258Z,66.68
2023-09-14T08:41:52.249Z,65.68
2023-09-14T08:42:52.267Z,65.71
2023-09-14T08:43:52.247Z,66.29
2023-09-14T08:44:52.202Z,66.86
2023-09-14T08:45:52.472Z,67.50
2023-09-14T08:46:52.340Z,67.10
2023-09-14T08:47:52.241Z,65.57
2023-09-14T08:48:52.267Z,67.67
2023-09-14T08:49:52.173Z,66.24
2023-09-14T08:50:52.249Z,66.09
2023-09-14T08:51:52.194Z,66.69
2023-09-14T08:52:52.114Z,67.21
2023-09-14T08:53:55.338Z,66.67
2023-09-14T08:54:54.114Z,66.10
2023-09-14T08:55:52.108Z,66.87
2023-09-14T08:56:52.100Z,65.98
2023-09-14T08:57:52.189Z,66.35
2023-09-14T08:58:52.072Z,66.65
2023-09-14T08:59:52.070Z,67.28
2023-09-14T09:00:52.317Z,67.42
2023-09-14T09:01:52.181Z,66.12
2023-09-14T09:02:52.036Z,65.35
2023-09-14T09:03:52.088Z,65.63
2023-09-14T09:04:52.105Z,66.15
2023-09-14T09:05:52.068Z,66.64
2023-09-14T09:06:52.056Z,66.76
2023-09-14T09:07:51.992Z,65.84
2023-09-14T09:08:51.947Z,65.64
2023-09-14T09:09:51.971Z,66.54
2023-09-14T09:10:51.953Z,65.47
2023-09-14T09:11:51.965Z,65.58
2023-09-14T09:12:51.924Z,66.82
2023-09-14T09:13:51.904Z,66.81
2023-09-14T09:14:51.921Z,67.12
2023-09-14T09:15:51.909Z,69.65
2023-09-14T09:16:52.045Z,72.51
2023-09-14T09:17:51.894Z,66.83
2023-09-14T09:18:51.982Z,66.53
2023-09-14T09:19:52.040Z,65.83
2023-09-14T09:20:51.842Z,65.97
2023-09-14T09:21:51.891Z,66.20
2023-09-14T09:22:51.812Z,65.85
2023-09-14T09:23:51.903Z,65.59
2023-09-14T09:24:51.819Z,65.50
2023-09-14T09:25:51.773Z,65.89
2023-09-14T09:26:51.824Z,66.27
2023-09-14T09:27:51.765Z,65.75
2023-09-14T09:28:51.750Z,70.79
2023-09-14T09:29:51.731Z,72.73
2023-09-14T09:30:51.794Z,72.75
2023-09-14T09:31:52.357Z,72.80
2023-09-14T09:32:51.722Z,76.06
2023-09-14T09:33:51.878Z,81.43
2023-09-14T09:34:51.666Z,73.73
2023-09-14T09:35:51.686Z,80.74
2023-09-14T09:36:51.741Z,81.64
2023-09-14T09:37:51.647Z,71.22
2023-09-14T09:38:51.658Z,71.97
2023-09-14T09:39:51.688Z,78.07
2023-09-14T09:40:51.729Z,72.40
2023-09-14T09:41:51.726Z,71.09
2023-09-14T09:42:51.635Z,69.50
2023-09-14T09:43:51.591Z,66.05
2023-09-14T09:44:51.584Z,69.23
2023-09-14T09:45:51.629Z,70.69
2023-09-14T09:46:51.768Z,77.99
2023-09-14T09:47:51.585Z,72.37
2023-09-14T09:48:51.559Z,70.78
2023-09-14T09:49:51.532Z,77.90
2023-09-14T09:50:51.611Z,72.30
2023-09-14T09:51:51.633Z,67.78
2023-09-14T09:52:51.558Z,67.18
2023-09-14T09:53:51.494Z,68.10
2023-09-14T09:54:52.608Z,70.20
2023-09-14T09:55:52.475Z,66.71
2023-09-14T09:56:51.468Z,65.52
2023-09-14T09:57:51.461Z,65.28
2023-09-14T09:58:51.444Z,65.68
2023-09-14T09:59:51.427Z,65.86
2023-09-14T10:00:51.489Z,65.42
2023-09-14T10:01:51.469Z,65.64
2023-09-14T10:02:51.461Z,65.13
2023-09-14T10:03:51.505Z,65.22
2023-09-14T10:04:51.365Z,65.42
2023-09-14T10:05:51.382Z,65.89
2023-09-14T10:06:51.438Z,65.54
2023-09-14T10:07:51.357Z,66.00
2023-09-14T10:08:51.350Z,66.19
2023-09-14T10:09:51.388Z,66.46
2023-09-14T10:10:51.309Z,65.67
2023-09-14T10:11:51.373Z,65.21
2023-09-14T10:12:51.331Z,65.05
2023-09-14T10:13:51.304Z,65.74
2023-09-14T10:14:51.319Z,65.55
2023-09-14T10:15:51.297Z,65.60
2023-09-14T10:16:51.548Z,65.59
2023-09-14T10:17:51.292Z,65.86
2023-09-14T10:18:51.256Z,65.65
2023-09-14T10:19:51.217Z,65.43
2023-09-14T10:20:52.200Z,65.55
2023-09-14T10:21:51.275Z,65.44
2023-09-14T10:22:51.217Z,64.88
2023-09-14T10:23:51.174Z,65.37
2023-09-14T10:24:51.260Z,65.65
2023-09-14T10:25:51.178Z,65.71
2023-09-14T10:26:51.147Z,65.13
2023-09-14T10:27:51.174Z,64.77
2023-09-14T10:28:51.124Z,65.40
2023-09-14T10:29:53.324Z,65.05
2023-09-14T10:30:51.198Z,66.20
2023-09-14T10:31:51.187Z,64.43
2023-09-14T10:32:51.146Z,65.34
2023-09-14T10:33:51.758Z,65.28
2023-09-14T10:35:03.888Z,65.02
2023-09-14T10:35:53.049Z,65.84
2023-09-14T10:36:51.259Z,65.37
2023-09-14T10:37:51.074Z,64.76
2023-09-14T10:38:52.023Z,65.63
2023-09-14T10:39:51.067Z,64.79
2023-09-14T10:40:51.020Z,64.98
2023-09-14T10:41:51.016Z,65.45
2023-09-14T10:42:51.062Z,65.20
2023-09-14T10:43:50.947Z,64.59
2023-09-14T10:44:51.965Z,65.04
2023-09-14T10:45:50.994Z,64.56
2023-09-14T10:46:51.000Z,64.56
2023-09-14T10:47:50.963Z,63.79
2023-09-14T10:48:50.962Z,65.01
2023-09-14T10:49:50.901Z,63.90
2023-09-14T10:50:50.908Z,64.14
2023-09-14T10:51:50.983Z,63.89
2023-09-14T10:52:50.901Z,64.10
2023-09-14T10:53:50.913Z,64.95
2023-09-14T10:54:50.874Z,63.53
2023-09-14T10:55:50.854Z,64.12
2023-09-14T10:56:50.832Z,63.79
2023-09-14T10:57:50.834Z,63.24
2023-09-14T10:58:50.806Z,63.35
2023-09-14T10:59:50.818Z,63.86
2023-09-14T11:00:56.647Z,63.79
2023-09-14T11:01:55.283Z,64.72
2023-09-14T11:02:52.123Z,64.65
2023-09-14T11:03:50.849Z,64.78
2023-09-14T11:04:50.942Z,68.72
2023-09-14T11:05:51.508Z,71.21
2023-09-14T11:06:51.754Z,68.73
2023-09-14T11:07:50.889Z,65.59
2023-09-14T11:08:51.410Z,64.41
2023-09-14T11:09:50.913Z,64.84
2023-09-14T11:10:51.017Z,68.23
2023-09-14T11:11:51.653Z,70.01
2023-09-14T11:12:51.596Z,70.89
2023-09-14T11:13:50.795Z,71.22
2023-09-14T11:14:50.689Z,68.86
2023-09-14T11:15:50.843Z,69.52
2023-09-14T11:16:51.056Z,70.55
2023-09-14T11:17:50.786Z,69.62
2023-09-14T11:18:51.651Z,70.94
2023-09-14T11:19:56.555Z,69.63
2023-09-14T11:20:53.253Z,70.46
2023-09-14T11:21:52.207Z,68.35
2023-09-14T11:22:52.020Z,69.48
2023-09-14T11:23:52.406Z,68.17
2023-09-14T11:24:50.710Z,69.32
2023-09-14T11:26:08.208Z,67.89
2023-09-14T11:26:54.015Z,66.95
2023-09-14T11:27:52.883Z,66.49
2023-09-14T11:28:52.478Z,63.84
2023-09-14T11:29:51.459Z,65.58
2023-09-14T11:30:53.686Z,65.21
2023-09-14T11:32:00.675Z,65.73
2023-09-14T11:32:53.476Z,67.00
2023-09-14T11:33:50.736Z,65.46
2023-09-14T11:34:53.365Z,65.81
2023-09-14T11:35:51.773Z,65.91
2023-09-14T11:36:52.543Z,65.26
2023-09-14T11:37:54.922Z,67.37
2023-09-14T11:38:52.885Z,66.57
2023-09-14T11:39:52.419Z,67.45
2023-09-14T11:40:55.849Z,67.15
2023-09-14T11:41:54.691Z,66.63
2023-09-14T11:42:52.368Z,66.76
2023-09-14T11:44:02.820Z,65.24
2023-09-14T11:44:58.518Z,67.25
2023-09-14T11:45:53.640Z,66.21
2023-09-14T11:46:52.668Z,67.53
2023-09-14T11:47:52.337Z,66.49
2023-09-14T11:49:51.528Z,68.05
2023-09-14T11:50:50.367Z,67.06
2023-09-14T11:51:50.276Z,66.75
2023-09-14T11:52:50.245Z,66.19
2023-09-14T11:53:50.243Z,69.34
2023-09-14T11:54:50.292Z,66.15
2023-09-14T11:55:50.228Z,68.53
2023-09-14T11:56:50.233Z,66.19
2023-09-14T11:57:50.233Z,66.24
2023-09-14T11:58:50.183Z,66.21
2023-09-14T11:59:50.229Z,67.33
2023-09-14T12:00:50.266Z,67.04
2023-09-14T12:01:50.202Z,64.91
2023-09-14T12:02:50.192Z,66.23
2023-09-14T12:03:50.457Z,65.66
2023-09-14T12:04:50.366Z,67.67
2023-09-14T12:05:50.136Z,67.60
2023-09-14T12:06:50.153Z,67.94
2023-09-14T12:07:50.110Z,67.14
2023-09-14T12:08:50.090Z,63.83
2023-09-14T12:09:50.213Z,67.09
2023-09-14T12:10:50.134Z,67.76
2023-09-14T12:11:50.059Z,66.34
2023-09-14T12:12:50.070Z,67.93
2023-09-14T12:13:50.061Z,67.72
2023-09-14T12:14:50.120Z,66.83
2023-09-14T12:15:50.189Z,66.98
2023-09-14T12:16:50.080Z,66.50
2023-09-14T12:17:50.015Z,67.14
2023-09-14T12:18:50.213Z,65.50
2023-09-14T12:19:49.989Z,67.84
2023-09-14T12:20:49.975Z,67.58
2023-09-14T12:21:49.974Z,68.05
2023-09-14T12:22:49.950Z,68.58
2023-09-14T12:23:49.956Z,65.90
2023-09-14T12:24:50.099Z,68.33
2023-09-14T12:25:49.963Z,66.80
2023-09-14T12:26:49.914Z,65.15
2023-09-14T12:27:49.975Z,66.93
2023-09-14T12:28:49.895Z,65.59
2023-09-14T12:29:49.899Z,65.02
2023-09-14T12:30:49.928Z,64.18
2023-09-14T12:31:49.858Z,64.05
2023-09-14T12:32:49.915Z,65.66
2023-09-14T12:33:49.928Z,66.03
2023-09-14T12:34:49.876Z,65.08
2023-09-14T12:35:49.822Z,64.13
2023-09-14T12:36:49.833Z,65.46
2023-09-14T12:37:49.820Z,65.42
2023-09-14T12:38:50.207Z,64.70
2023-09-14T12:39:49.800Z,65.45
2023-09-14T12:40:49.767Z,65.98
2023-09-14T12:41:49.756Z,65.69
2023-09-14T12:42:49.814Z,65.07
2023-09-14T12:43:49.771Z,65.71
2023-09-14T12:44:49.831Z,65.17
2023-09-14T12:45:49.788Z,64.33
2023-09-14T12:46:49.727Z,65.23
2023-09-14T12:47:49.736Z,64.97
2023-09-14T12:48:49.999Z,65.41
2023-09-14T12:49:49.696Z,64.45
2023-09-14T12:50:49.669Z,65.42
2023-09-14T12:52:24.172Z,63.39
2023-09-14T12:52:49.686Z,64.55
2023-09-14T12:53:49.641Z,65.69